sensor_id;sensor_type;location;lat;lon;timestamp;temperature;humidity
70830;SHT30;58451;51.550;7.208;2024-01-16T00:01:26;1.71;81.93
70830;SHT30;58451;51.550;7.208;2024-01-16T00:02:57;1.71;81.95
70830;SHT30;58451;51.550;7.208;2024-01-16T00:04:29;1.71;82.00
70830;SHT30;58451;51.550;7.208;2024-01-16T00:06:01;1.72;81.93
70830;SHT30;58451;51.550;7.208;2024-01-16T00:07:33;1.72;81.90
70830;SHT30;58451;51.550;7.208;2024-01-16T00:09:06;1.72;81.83
70830;SHT30;58451;51.550;7.208;2024-01-16T00:10:38;1.72;81.87
70830;SHT30;58451;51.550;7.208;2024-01-16T00:12:09;1.72;81.90
70830;SHT30;58451;51.550;7.208;2024-01-16T00:13:40;1.73;81.90
70830;SHT30;58451;51.550;7.208;2024-01-16T00:15:11;1.74;82.00
70830;SHT30;58451;51.550;7.208;2024-01-16T00:16:43;1.75;82.00
70830;SHT30;58451;51.550;7.208;2024-01-16T00:18:15;1.76;81.95
70830;SHT30;58451;51.550;7.208;2024-01-16T00:19:47;1.77;81.88
70830;SHT30;58451;51.550;7.208;2024-01-16T00:21:18;1.76;81.83
70830;SHT30;58451;51.550;7.208;2024-01-16T00:22:49;1.74;81.72
70830;SHT30;58451;51.550;7.208;2024-01-16T00:24:20;1.75;81.78
70830;SHT30;58451;51.550;7.208;2024-01-16T00:25:51;1.75;81.78
70830;SHT30;58451;51.550;7.208;2024-01-16T00:27:23;1.76;81.68
70830;SHT30;58451;51.550;7.208;2024-01-16T00:28:55;1.76;81.65
70830;SHT30;58451;51.550;7.208;2024-01-16T00:30:29;1.75;81.67
70830;SHT30;58451;51.550;7.208;2024-01-16T00:32:00;1.76;81.67
70830;SHT30;58451;51.550;7.208;2024-01-16T00:33:31;1.76;81.63
70830;SHT30;58451;51.550;7.208;2024-01-16T00:35:02;1.78;81.63
70830;SHT30;58451;51.550;7.208;2024-01-16T00:36:34;1.76;81.68
70830;SHT30;58451;51.550;7.208;2024-01-16T00:38:05;1.77;81.70
70830;SHT30;58451;51.550;7.208;2024-01-16T00:39:37;1.77;81.63
70830;SHT30;58451;51.550;7.208;2024-01-16T00:41:08;1.78;81.57
70830;SHT30;58451;51.550;7.208;2024-01-16T00:42:40;1.76;81.50
70830;SHT30;58451;51.550;7.208;2024-01-16T00:44:11;1.76;81.53
70830;SHT30;58451;51.550;7.208;2024-01-16T00:45:42;1.76;81.55
70830;SHT30;58451;51.550;7.208;2024-01-16T00:47:13;1.77;81.60
70830;SHT30;58451;51.550;7.208;2024-01-16T00:48:44;1.78;81.63
70830;SHT30;58451;51.550;7.208;2024-01-16T00:50:16;1.78;81.63
70830;SHT30;58451;51.550;7.208;2024-01-16T00:51:48;1.78;81.68
70830;SHT30;58451;51.550;7.208;2024-01-16T00:53:19;1.77;81.62
70830;SHT30;58451;51.550;7.208;2024-01-16T00:54:50;1.76;81.57
70830;SHT30;58451;51.550;7.208;2024-01-16T00:56:21;1.76;81.57
70830;SHT30;58451;51.550;7.208;2024-01-16T00:57:53;1.75;81.53
70830;SHT30;58451;51.550;7.208;2024-01-16T00:59:25;1.73;81.53
70830;SHT30;58451;51.550;7.208;2024-01-16T01:00:56;1.75;81.63
70830;SHT30;58451;51.550;7.208;2024-01-16T01:02:28;1.73;81.52
70830;SHT30;58451;51.550;7.208;2024-01-16T01:03:59;1.73;81.50
70830;SHT30;58451;51.550;7.208;2024-01-16T01:05:30;1.72;81.53
70830;SHT30;58451;51.550;7.208;2024-01-16T01:07:01;1.71;81.52
70830;SHT30;58451;51.550;7.208;2024-01-16T01:08:33;1.70;81.55
70830;SHT30;58451;51.550;7.208;2024-01-16T01:10:04;1.70;81.60
70830;SHT30;58451;51.550;7.208;2024-01-16T01:11:36;1.69;81.60
70830;SHT30;58451;51.550;7.208;2024-01-16T01:13:07;1.68;81.60
70830;SHT30;58451;51.550;7.208;2024-01-16T01:14:39;1.68;81.62
70830;SHT30;58451;51.550;7.208;2024-01-16T01:16:10;1.67;81.57
70830;SHT30;58451;51.550;7.208;2024-01-16T01:17:43;1.66;81.50
70830;SHT30;58451;51.550;7.208;2024-01-16T01:19:14;1.64;81.48
70830;SHT30;58451;51.550;7.208;2024-01-16T01:20:46;1.65;81.45
70830;SHT30;58451;51.550;7.208;2024-01-16T01:22:17;1.66;81.55
70830;SHT30;58451;51.550;7.208;2024-01-16T01:23:48;1.67;81.62
70830;SHT30;58451;51.550;7.208;2024-01-16T01:25:20;1.67;81.60
70830;SHT30;58451;51.550;7.208;2024-01-16T01:26:51;1.67;81.67
70830;SHT30;58451;51.550;7.208;2024-01-16T01:28:22;1.69;81.70
70830;SHT30;58451;51.550;7.208;2024-01-16T01:29:53;1.68;81.70
70830;SHT30;58451;51.550;7.208;2024-01-16T01:31:25;1.66;81.70
70830;SHT30;58451;51.550;7.208;2024-01-16T01:32:56;1.65;81.67
70830;SHT30;58451;51.550;7.208;2024-01-16T01:34:27;1.63;81.48
70830;SHT30;58451;51.550;7.208;2024-01-16T01:35:58;1.61;81.52
70830;SHT30;58451;51.550;7.208;2024-01-16T01:37:30;1.62;81.52
70830;SHT30;58451;51.550;7.208;2024-01-16T01:39:01;1.62;81.57
70830;SHT30;58451;51.550;7.208;2024-01-16T01:40:33;1.59;81.55
70830;SHT30;58451;51.550;7.208;2024-01-16T01:42:04;1.58;81.58
70830;SHT30;58451;51.550;7.208;2024-01-16T01:43:36;1.58;81.50
70830;SHT30;58451;51.550;7.208;2024-01-16T01:45:10;1.57;81.52
70830;SHT30;58451;51.550;7.208;2024-01-16T01:46:42;1.55;81.50
70830;SHT30;58451;51.550;7.208;2024-01-16T01:48:15;1.56;81.57
70830;SHT30;58451;51.550;7.208;2024-01-16T01:49:48;1.55;81.62
70830;SHT30;58451;51.550;7.208;2024-01-16T01:51:20;1.55;81.62
70830;SHT30;58451;51.550;7.208;2024-01-16T01:52:51;1.55;81.60
70830;SHT30;58451;51.550;7.208;2024-01-16T01:54:23;1.57;81.67
70830;SHT30;58451;51.550;7.208;2024-01-16T01:55:57;1.56;81.63
70830;SHT30;58451;51.550;7.208;2024-01-16T01:57:30;1.54;81.53
70830;SHT30;58451;51.550;7.208;2024-01-16T01:59:01;1.54;81.57
70830;SHT30;58451;51.550;7.208;2024-01-16T02:00:33;1.54;81.58
70830;SHT30;58451;51.550;7.208;2024-01-16T02:02:05;1.54;81.62
70830;SHT30;58451;51.550;7.208;2024-01-16T02:03:43;1.55;81.63
70830;SHT30;58451;51.550;7.208;2024-01-16T02:05:16;1.55;81.65
70830;SHT30;58451;51.550;7.208;2024-01-16T02:06:48;1.55;81.63
70830;SHT30;58451;51.550;7.208;2024-01-16T02:08:20;1.54;81.62
70830;SHT30;58451;51.550;7.208;2024-01-16T02:09:52;1.54;81.68
70830;SHT30;58451;51.550;7.208;2024-01-16T02:11:24;1.56;81.75
70830;SHT30;58451;51.550;7.208;2024-01-16T02:12:56;1.56;81.80
70830;SHT30;58451;51.550;7.208;2024-01-16T02:14:28;1.57;81.80
70830;SHT30;58451;51.550;7.208;2024-01-16T02:15:59;1.56;81.73
70830;SHT30;58451;51.550;7.208;2024-01-16T02:17:30;1.55;81.78
70830;SHT30;58451;51.550;7.208;2024-01-16T02:19:01;1.57;81.78
70830;SHT30;58451;51.550;7.208;2024-01-16T02:20:32;1.56;81.80
70830;SHT30;58451;51.550;7.208;2024-01-16T02:22:04;1.57;81.80
70830;SHT30;58451;51.550;7.208;2024-01-16T02:23:46;1.56;81.80
70830;SHT30;58451;51.550;7.208;2024-01-16T02:25:19;1.56;81.80
70830;SHT30;58451;51.550;7.208;2024-01-16T02:26:50;1.58;81.83
70830;SHT30;58451;51.550;7.208;2024-01-16T02:28:22;1.59;81.88
70830;SHT30;58451;51.550;7.208;2024-01-16T02:29:53;1.59;81.90
70830;SHT30;58451;51.550;7.208;2024-01-16T02:31:25;1.58;81.90
70830;SHT30;58451;51.550;7.208;2024-01-16T02:32:56;1.58;81.90
70830;SHT30;58451;51.550;7.208;2024-01-16T02:34:27;1.58;81.98
70830;SHT30;58451;51.550;7.208;2024-01-16T02:35:58;1.58;82.00
70830;SHT30;58451;51.550;7.208;2024-01-16T02:37:30;1.58;81.98
70830;SHT30;58451;51.550;7.208;2024-01-16T02:39:01;1.57;82.02
70830;SHT30;58451;51.550;7.208;2024-01-16T02:40:32;1.57;81.97
70830;SHT30;58451;51.550;7.208;2024-01-16T02:42:03;1.58;82.00
70830;SHT30;58451;51.550;7.208;2024-01-16T02:43:35;1.60;82.00
70830;SHT30;58451;51.550;7.208;2024-01-16T02:45:06;1.60;82.03
70830;SHT30;58451;51.550;7.208;2024-01-16T02:46:39;1.61;82.05
70830;SHT30;58451;51.550;7.208;2024-01-16T02:48:10;1.60;82.00
70830;SHT30;58451;51.550;7.208;2024-01-16T02:49:42;1.61;82.07
70830;SHT30;58451;51.550;7.208;2024-01-16T02:51:13;1.60;82.08
70830;SHT30;58451;51.550;7.208;2024-01-16T02:52:46;1.61;82.10
70830;SHT30;58451;51.550;7.208;2024-01-16T02:54:17;1.60;82.10
70830;SHT30;58451;51.550;7.208;2024-01-16T02:55:48;1.60;82.08
70830;SHT30;58451;51.550;7.208;2024-01-16T02:57:19;1.61;82.10
70830;SHT30;58451;51.550;7.208;2024-01-16T02:58:51;1.61;82.20
70830;SHT30;58451;51.550;7.208;2024-01-16T03:00:22;1.60;82.13
70830;SHT30;58451;51.550;7.208;2024-01-16T03:01:53;1.62;82.20
70830;SHT30;58451;51.550;7.208;2024-01-16T03:03:24;1.62;82.12
70830;SHT30;58451;51.550;7.208;2024-01-16T03:04:55;1.60;82.12
70830;SHT30;58451;51.550;7.208;2024-01-16T03:06:27;1.63;82.17
70830;SHT30;58451;51.550;7.208;2024-01-16T03:07:59;1.63;82.12
70830;SHT30;58451;51.550;7.208;2024-01-16T03:09:31;1.63;82.18
70830;SHT30;58451;51.550;7.208;2024-01-16T03:11:02;1.64;82.20
70830;SHT30;58451;51.550;7.208;2024-01-16T03:12:33;1.65;82.13
70830;SHT30;58451;51.550;7.208;2024-01-16T03:14:05;1.65;82.18
70830;SHT30;58451;51.550;7.208;2024-01-16T03:15:36;1.63;82.15
70830;SHT30;58451;51.550;7.208;2024-01-16T03:17:07;1.63;82.17
70830;SHT30;58451;51.550;7.208;2024-01-16T03:18:38;1.63;82.20
70830;SHT30;58451;51.550;7.208;2024-01-16T03:20:10;1.63;82.20
70830;SHT30;58451;51.550;7.208;2024-01-16T03:21:42;1.63;82.23
70830;SHT30;58451;51.550;7.208;2024-01-16T03:23:13;1.64;82.23
70830;SHT30;58451;51.550;7.208;2024-01-16T03:24:44;1.65;82.38
70830;SHT30;58451;51.550;7.208;2024-01-16T03:26:16;1.67;82.38
70830;SHT30;58451;51.550;7.208;2024-01-16T03:27:48;1.65;82.30
70830;SHT30;58451;51.550;7.208;2024-01-16T03:29:19;1.65;82.30
70830;SHT30;58451;51.550;7.208;2024-01-16T03:30:51;1.67;82.38
70830;SHT30;58451;51.550;7.208;2024-01-16T03:32:22;1.67;82.37
70830;SHT30;58451;51.550;7.208;2024-01-16T03:33:54;1.67;82.40
70830;SHT30;58451;51.550;7.208;2024-01-16T03:35:26;1.69;82.50
70830;SHT30;58451;51.550;7.208;2024-01-16T03:36:57;1.70;82.53
70830;SHT30;58451;51.550;7.208;2024-01-16T03:38:28;1.70;82.55
70830;SHT30;58451;51.550;7.208;2024-01-16T03:39:59;1.71;82.58
70830;SHT30;58451;51.550;7.208;2024-01-16T03:41:31;1.72;82.57
70830;SHT30;58451;51.550;7.208;2024-01-16T03:43:02;1.70;82.50
70830;SHT30;58451;51.550;7.208;2024-01-16T03:44:38;1.71;82.55
70830;SHT30;58451;51.550;7.208;2024-01-16T03:46:11;1.71;82.58
70830;SHT30;58451;51.550;7.208;2024-01-16T03:47:42;1.72;82.57
70830;SHT30;58451;51.550;7.208;2024-01-16T03:49:14;1.71;82.58
70830;SHT30;58451;51.550;7.208;2024-01-16T03:50:45;1.71;82.58
70830;SHT30;58451;51.550;7.208;2024-01-16T03:52:18;1.73;82.65
70830;SHT30;58451;51.550;7.208;2024-01-16T03:53:49;1.72;82.70
70830;SHT30;58451;51.550;7.208;2024-01-16T03:55:20;1.72;82.68
70830;SHT30;58451;51.550;7.208;2024-01-16T03:56:52;1.71;82.65
70830;SHT30;58451;51.550;7.208;2024-01-16T03:58:24;1.72;82.70
70830;SHT30;58451;51.550;7.208;2024-01-16T03:59:55;1.71;82.67
70830;SHT30;58451;51.550;7.208;2024-01-16T04:01:32;1.71;82.67
70830;SHT30;58451;51.550;7.208;2024-01-16T04:03:04;1.69;82.63
70830;SHT30;58451;51.550;7.208;2024-01-16T04:04:37;1.69;82.63
70830;SHT30;58451;51.550;7.208;2024-01-16T04:06:15;1.69;82.65
70830;SHT30;58451;51.550;7.208;2024-01-16T04:07:51;1.69;82.62
70830;SHT30;58451;51.550;7.208;2024-01-16T04:09:23;1.69;82.60
70830;SHT30;58451;51.550;7.208;2024-01-16T04:10:54;1.69;82.60
70830;SHT30;58451;51.550;7.208;2024-01-16T04:12:25;1.68;82.62
70830;SHT30;58451;51.550;7.208;2024-01-16T04:13:56;1.68;82.67
70830;SHT30;58451;51.550;7.208;2024-01-16T04:15:27;1.67;82.60
70830;SHT30;58451;51.550;7.208;2024-01-16T04:16:59;1.67;82.60
70830;SHT30;58451;51.550;7.208;2024-01-16T04:18:32;1.66;82.62
70830;SHT30;58451;51.550;7.208;2024-01-16T04:20:13;1.68;82.63
70830;SHT30;58451;51.550;7.208;2024-01-16T04:21:44;1.67;82.55
70830;SHT30;58451;51.550;7.208;2024-01-16T04:23:15;1.67;82.58
70830;SHT30;58451;51.550;7.208;2024-01-16T04:24:47;1.67;82.58
70830;SHT30;58451;51.550;7.208;2024-01-16T04:26:19;1.68;82.52
70830;SHT30;58451;51.550;7.208;2024-01-16T04:27:50;1.67;82.60
70830;SHT30;58451;51.550;7.208;2024-01-16T04:29:21;1.65;82.53
70830;SHT30;58451;51.550;7.208;2024-01-16T04:30:55;1.67;82.50
70830;SHT30;58451;51.550;7.208;2024-01-16T04:32:27;1.67;82.58
70830;SHT30;58451;51.550;7.208;2024-01-16T04:33:58;1.68;82.60
70830;SHT30;58451;51.550;7.208;2024-01-16T04:35:29;1.69;82.60
70830;SHT30;58451;51.550;7.208;2024-01-16T04:37:00;1.69;82.60
70830;SHT30;58451;51.550;7.208;2024-01-16T04:38:32;1.69;82.63
70830;SHT30;58451;51.550;7.208;2024-01-16T04:40:04;1.70;82.60
70830;SHT30;58451;51.550;7.208;2024-01-16T04:41:36;1.70;82.55
70830;SHT30;58451;51.550;7.208;2024-01-16T04:43:07;1.68;82.58
70830;SHT30;58451;51.550;7.208;2024-01-16T04:44:39;1.68;82.60
70830;SHT30;58451;51.550;7.208;2024-01-16T04:46:10;1.69;82.60
70830;SHT30;58451;51.550;7.208;2024-01-16T04:47:41;1.69;82.57
70830;SHT30;58451;51.550;7.208;2024-01-16T04:49:13;1.68;82.58
70830;SHT30;58451;51.550;7.208;2024-01-16T04:50:44;1.68;82.55
70830;SHT30;58451;51.550;7.208;2024-01-16T04:52:16;1.67;82.40
70830;SHT30;58451;51.550;7.208;2024-01-16T04:53:47;1.68;82.40
70830;SHT30;58451;51.550;7.208;2024-01-16T04:55:18;1.69;82.42
70830;SHT30;58451;51.550;7.208;2024-01-16T04:56:50;1.70;82.48
70830;SHT30;58451;51.550;7.208;2024-01-16T04:58:21;1.71;82.50
70830;SHT30;58451;51.550;7.208;2024-01-16T04:59:52;1.72;82.52
70830;SHT30;58451;51.550;7.208;2024-01-16T05:01:23;1.74;82.53
70830;SHT30;58451;51.550;7.208;2024-01-16T05:02:55;1.74;82.55
70830;SHT30;58451;51.550;7.208;2024-01-16T05:04:28;1.73;82.60
70830;SHT30;58451;51.550;7.208;2024-01-16T05:05:59;1.74;82.58
70830;SHT30;58451;51.550;7.208;2024-01-16T05:07:30;1.74;82.52
70830;SHT30;58451;51.550;7.208;2024-01-16T05:09:01;1.74;82.57
70830;SHT30;58451;51.550;7.208;2024-01-16T05:10:34;1.74;82.53
70830;SHT30;58451;51.550;7.208;2024-01-16T05:12:05;1.74;82.52
70830;SHT30;58451;51.550;7.208;2024-01-16T05:13:36;1.75;82.53
70830;SHT30;58451;51.550;7.208;2024-01-16T05:15:08;1.75;82.50
70830;SHT30;58451;51.550;7.208;2024-01-16T05:16:42;1.77;82.53
70830;SHT30;58451;51.550;7.208;2024-01-16T05:18:13;1.75;82.32
70830;SHT30;58451;51.550;7.208;2024-01-16T05:19:44;1.76;82.23
70830;SHT30;58451;51.550;7.208;2024-01-16T05:21:16;1.74;82.15
70830;SHT30;58451;51.550;7.208;2024-01-16T05:22:48;1.76;82.13
70830;SHT30;58451;51.550;7.208;2024-01-16T05:24:19;1.74;82.00
70830;SHT30;58451;51.550;7.208;2024-01-16T05:25:50;1.75;81.97
70830;SHT30;58451;51.550;7.208;2024-01-16T05:27:21;1.75;82.02
70830;SHT30;58451;51.550;7.208;2024-01-16T05:28:53;1.77;82.08
70830;SHT30;58451;51.550;7.208;2024-01-16T05:30:24;1.77;82.10
70830;SHT30;58451;51.550;7.208;2024-01-16T05:31:55;1.78;82.10
70830;SHT30;58451;51.550;7.208;2024-01-16T05:33:27;1.80;82.07
70830;SHT30;58451;51.550;7.208;2024-01-16T05:34:58;1.80;82.08
70830;SHT30;58451;51.550;7.208;2024-01-16T05:36:29;1.81;82.10
70830;SHT30;58451;51.550;7.208;2024-01-16T05:38:01;1.81;82.03
70830;SHT30;58451;51.550;7.208;2024-01-16T05:39:32;1.81;82.05
70830;SHT30;58451;51.550;7.208;2024-01-16T05:41:03;1.81;82.02
70830;SHT30;58451;51.550;7.208;2024-01-16T05:42:35;1.80;81.90
70830;SHT30;58451;51.550;7.208;2024-01-16T05:44:06;1.82;81.90
70830;SHT30;58451;51.550;7.208;2024-01-16T05:45:38;1.83;81.97
70830;SHT30;58451;51.550;7.208;2024-01-16T05:47:09;1.83;81.98
70830;SHT30;58451;51.550;7.208;2024-01-16T05:48:41;1.83;82.00
70830;SHT30;58451;51.550;7.208;2024-01-16T05:50:13;1.84;81.98
70830;SHT30;58451;51.550;7.208;2024-01-16T05:51:47;1.84;82.03
70830;SHT30;58451;51.550;7.208;2024-01-16T05:53:18;1.83;82.08
70830;SHT30;58451;51.550;7.208;2024-01-16T05:54:50;1.84;82.07
70830;SHT30;58451;51.550;7.208;2024-01-16T05:56:21;1.83;81.97
70830;SHT30;58451;51.550;7.208;2024-01-16T05:57:52;1.81;81.95
70830;SHT30;58451;51.550;7.208;2024-01-16T05:59:24;1.82;82.00
70830;SHT30;58451;51.550;7.208;2024-01-16T06:00:55;1.80;82.00
70830;SHT30;58451;51.550;7.208;2024-01-16T06:02:26;1.80;81.98
70830;SHT30;58451;51.550;7.208;2024-01-16T06:03:58;1.81;82.00
70830;SHT30;58451;51.550;7.208;2024-01-16T06:05:30;1.80;81.98
70830;SHT30;58451;51.550;7.208;2024-01-16T06:07:01;1.80;81.95
70830;SHT30;58451;51.550;7.208;2024-01-16T06:08:36;1.81;82.07
70830;SHT30;58451;51.550;7.208;2024-01-16T06:10:08;1.80;82.07
70830;SHT30;58451;51.550;7.208;2024-01-16T06:11:40;1.80;82.00
70830;SHT30;58451;51.550;7.208;2024-01-16T06:13:12;1.79;82.03
70830;SHT30;58451;51.550;7.208;2024-01-16T06:14:43;1.80;82.00
70830;SHT30;58451;51.550;7.208;2024-01-16T06:16:14;1.79;82.00
70830;SHT30;58451;51.550;7.208;2024-01-16T06:17:45;1.80;82.03
70830;SHT30;58451;51.550;7.208;2024-01-16T06:19:16;1.78;82.08
70830;SHT30;58451;51.550;7.208;2024-01-16T06:20:48;1.79;82.02
70830;SHT30;58451;51.550;7.208;2024-01-16T06:22:19;1.78;81.95
70830;SHT30;58451;51.550;7.208;2024-01-16T06:23:50;1.78;82.02
70830;SHT30;58451;51.550;7.208;2024-01-16T06:25:22;1.78;82.05
70830;SHT30;58451;51.550;7.208;2024-01-16T06:26:53;1.79;82.07
70830;SHT30;58451;51.550;7.208;2024-01-16T06:28:24;1.77;81.83
70830;SHT30;58451;51.550;7.208;2024-01-16T06:29:55;1.75;81.77
70830;SHT30;58451;51.550;7.208;2024-01-16T06:31:27;1.74;81.78
70830;SHT30;58451;51.550;7.208;2024-01-16T06:32:58;1.73;81.83
70830;SHT30;58451;51.550;7.208;2024-01-16T06:34:29;1.74;81.85
70830;SHT30;58451;51.550;7.208;2024-01-16T06:36:04;1.73;81.95
70830;SHT30;58451;51.550;7.208;2024-01-16T06:37:36;1.73;81.73
70830;SHT30;58451;51.550;7.208;2024-01-16T06:39:08;1.73;81.82
70830;SHT30;58451;51.550;7.208;2024-01-16T06:40:39;1.71;81.63
70830;SHT30;58451;51.550;7.208;2024-01-16T06:42:10;1.73;81.83
70830;SHT30;58451;51.550;7.208;2024-01-16T06:43:42;1.75;81.82
70830;SHT30;58451;51.550;7.208;2024-01-16T06:45:14;1.73;81.70
70830;SHT30;58451;51.550;7.208;2024-01-16T06:46:46;1.74;81.72
70830;SHT30;58451;51.550;7.208;2024-01-16T06:48:17;1.76;81.92
70830;SHT30;58451;51.550;7.208;2024-01-16T06:49:49;1.76;81.77
70830;SHT30;58451;51.550;7.208;2024-01-16T06:51:20;1.74;81.60
70830;SHT30;58451;51.550;7.208;2024-01-16T06:52:51;1.75;81.78
70830;SHT30;58451;51.550;7.208;2024-01-16T06:54:22;1.74;81.53
70830;SHT30;58451;51.550;7.208;2024-01-16T06:55:54;1.72;81.45
70830;SHT30;58451;51.550;7.208;2024-01-16T06:57:25;1.73;81.53
70830;SHT30;58451;51.550;7.208;2024-01-16T06:58:57;1.74;81.68
70830;SHT30;58451;51.550;7.208;2024-01-16T07:00:28;1.75;81.82
70830;SHT30;58451;51.550;7.208;2024-01-16T07:02:00;1.76;81.72
70830;SHT30;58451;51.550;7.208;2024-01-16T07:03:31;1.76;81.82
70830;SHT30;58451;51.550;7.208;2024-01-16T07:05:03;1.76;81.87
70830;SHT30;58451;51.550;7.208;2024-01-16T07:06:34;1.78;81.98
70830;SHT30;58451;51.550;7.208;2024-01-16T07:08:06;1.77;81.85
70830;SHT30;58451;51.550;7.208;2024-01-16T07:09:38;1.75;81.65
70830;SHT30;58451;51.550;7.208;2024-01-16T07:11:09;1.73;81.38
70830;SHT30;58451;51.550;7.208;2024-01-16T07:12:44;1.73;81.50
70830;SHT30;58451;51.550;7.208;2024-01-16T07:14:16;1.74;81.62
70830;SHT30;58451;51.550;7.208;2024-01-16T07:15:47;1.74;81.57
70830;SHT30;58451;51.550;7.208;2024-01-16T07:17:19;1.73;81.48
70830;SHT30;58451;51.550;7.208;2024-01-16T07:18:50;1.72;81.27
70830;SHT30;58451;51.550;7.208;2024-01-16T07:20:21;1.72;81.25
70830;SHT30;58451;51.550;7.208;2024-01-16T07:21:53;1.71;81.33
70830;SHT30;58451;51.550;7.208;2024-01-16T07:23:24;1.72;81.23
70830;SHT30;58451;51.550;7.208;2024-01-16T07:24:55;1.72;81.23
70830;SHT30;58451;51.550;7.208;2024-01-16T07:26:26;1.72;81.18
70830;SHT30;58451;51.550;7.208;2024-01-16T07:27:57;1.71;80.97
70830;SHT30;58451;51.550;7.208;2024-01-16T07:29:28;1.71;81.08
70830;SHT30;58451;51.550;7.208;2024-01-16T07:30:59;1.71;81.22
70830;SHT30;58451;51.550;7.208;2024-01-16T07:32:31;1.71;81.22
70830;SHT30;58451;51.550;7.208;2024-01-16T07:34:03;1.71;81.02
70830;SHT30;58451;51.550;7.208;2024-01-16T07:35:34;1.73;81.28
70830;SHT30;58451;51.550;7.208;2024-01-16T07:37:06;1.74;81.25
70830;SHT30;58451;51.550;7.208;2024-01-16T07:38:37;1.74;81.15
70830;SHT30;58451;51.550;7.208;2024-01-16T07:40:09;1.74;81.02
70830;SHT30;58451;51.550;7.208;2024-01-16T07:41:40;1.70;80.90
70830;SHT30;58451;51.550;7.208;2024-01-16T07:43:14;1.71;81.00
70830;SHT30;58451;51.550;7.208;2024-01-16T07:44:45;1.70;81.03
70830;SHT30;58451;51.550;7.208;2024-01-16T07:46:16;1.71;80.93
70830;SHT30;58451;51.550;7.208;2024-01-16T07:47:47;1.68;80.68
70830;SHT30;58451;51.550;7.208;2024-01-16T07:49:18;1.67;80.70
70830;SHT30;58451;51.550;7.208;2024-01-16T07:50:50;1.66;80.78
70830;SHT30;58451;51.550;7.208;2024-01-16T07:52:22;1.67;81.05
70830;SHT30;58451;51.550;7.208;2024-01-16T07:53:59;1.68;81.07
70830;SHT30;58451;51.550;7.208;2024-01-16T07:55:37;1.67;80.85
70830;SHT30;58451;51.550;7.208;2024-01-16T07:57:08;1.69;80.98
70830;SHT30;58451;51.550;7.208;2024-01-16T07:58:39;1.71;80.85
70830;SHT30;58451;51.550;7.208;2024-01-16T08:00:11;1.69;80.30
70830;SHT30;58451;51.550;7.208;2024-01-16T08:01:42;1.70;80.57
70830;SHT30;58451;51.550;7.208;2024-01-16T08:03:14;1.70;80.57
70830;SHT30;58451;51.550;7.208;2024-01-16T08:04:45;1.70;80.63
70830;SHT30;58451;51.550;7.208;2024-01-16T08:06:16;1.70;80.58
70830;SHT30;58451;51.550;7.208;2024-01-16T08:07:48;1.65;80.08
70830;SHT30;58451;51.550;7.208;2024-01-16T08:09:19;1.66;80.17
70830;SHT30;58451;51.550;7.208;2024-01-16T08:10:53;1.66;80.27
70830;SHT30;58451;51.550;7.208;2024-01-16T08:12:24;1.63;79.90
70830;SHT30;58451;51.550;7.208;2024-01-16T08:13:55;1.58;79.53
70830;SHT30;58451;51.550;7.208;2024-01-16T08:15:26;1.58;79.62
70830;SHT30;58451;51.550;7.208;2024-01-16T08:16:57;1.59;79.78
70830;SHT30;58451;51.550;7.208;2024-01-16T08:18:28;1.59;79.70
70830;SHT30;58451;51.550;7.208;2024-01-16T08:20:00;1.60;80.00
70830;SHT30;58451;51.550;7.208;2024-01-16T08:21:31;1.59;79.65
70830;SHT30;58451;51.550;7.208;2024-01-16T08:23:02;1.56;79.02
70830;SHT30;58451;51.550;7.208;2024-01-16T08:24:33;1.55;79.43
70830;SHT30;58451;51.550;7.208;2024-01-16T08:26:05;1.55;79.43
70830;SHT30;58451;51.550;7.208;2024-01-16T08:27:36;1.53;79.10
70830;SHT30;58451;51.550;7.208;2024-01-16T08:29:08;1.53;79.28
70830;SHT30;58451;51.550;7.208;2024-01-16T08:30:39;1.51;79.05
70830;SHT30;58451;51.550;7.208;2024-01-16T08:32:10;1.50;79.05
70830;SHT30;58451;51.550;7.208;2024-01-16T08:33:42;1.50;79.38
70830;SHT30;58451;51.550;7.208;2024-01-16T08:35:18;1.52;79.57
70830;SHT30;58451;51.550;7.208;2024-01-16T08:36:49;1.53;79.50
70830;SHT30;58451;51.550;7.208;2024-01-16T08:38:20;1.52;79.40
70830;SHT30;58451;51.550;7.208;2024-01-16T08:39:51;1.54;79.37
70830;SHT30;58451;51.550;7.208;2024-01-16T08:41:23;1.51;78.82
70830;SHT30;58451;51.550;7.208;2024-01-16T08:42:54;1.51;78.93
70830;SHT30;58451;51.550;7.208;2024-01-16T08:44:28;1.51;78.53
70830;SHT30;58451;51.550;7.208;2024-01-16T08:46:00;1.49;78.70
70830;SHT30;58451;51.550;7.208;2024-01-16T08:47:31;1.49;78.72
70830;SHT30;58451;51.550;7.208;2024-01-16T08:49:02;1.50;78.65
70830;SHT30;58451;51.550;7.208;2024-01-16T08:50:33;1.51;78.67
70830;SHT30;58451;51.550;7.208;2024-01-16T08:52:04;1.53;78.70
70830;SHT30;58451;51.550;7.208;2024-01-16T08:53:36;1.52;78.13
70830;SHT30;58451;51.550;7.208;2024-01-16T08:55:07;1.54;78.65
70830;SHT30;58451;51.550;7.208;2024-01-16T08:56:42;1.58;78.98
70830;SHT30;58451;51.550;7.208;2024-01-16T08:58:13;1.58;78.82
70830;SHT30;58451;51.550;7.208;2024-01-16T08:59:44;1.54;77.78
70830;SHT30;58451;51.550;7.208;2024-01-16T09:01:16;1.54;77.50
70830;SHT30;58451;51.550;7.208;2024-01-16T09:02:47;1.55;77.75
70830;SHT30;58451;51.550;7.208;2024-01-16T09:04:19;1.56;77.43
70830;SHT30;58451;51.550;7.208;2024-01-16T09:05:50;1.58;77.50
70830;SHT30;58451;51.550;7.208;2024-01-16T09:07:22;1.62;77.57
70830;SHT30;58451;51.550;7.208;2024-01-16T09:08:53;1.64;77.47
70830;SHT30;58451;51.550;7.208;2024-01-16T09:10:25;1.67;77.50
70830;SHT30;58451;51.550;7.208;2024-01-16T09:11:58;1.68;76.97
70830;SHT30;58451;51.550;7.208;2024-01-16T09:13:29;1.71;76.93
70830;SHT30;58451;51.550;7.208;2024-01-16T09:15:04;1.72;77.12
70830;SHT30;58451;51.550;7.208;2024-01-16T09:17:08;1.74;77.03
70830;SHT30;58451;51.550;7.208;2024-01-16T09:18:42;1.74;77.17
70830;SHT30;58451;51.550;7.208;2024-01-16T09:20:13;1.71;76.45
70830;SHT30;58451;51.550;7.208;2024-01-16T09:21:44;1.73;76.88
70830;SHT30;58451;51.550;7.208;2024-01-16T09:23:15;1.74;77.23
70830;SHT30;58451;51.550;7.208;2024-01-16T09:24:46;1.74;76.95
70830;SHT30;58451;51.550;7.208;2024-01-16T09:26:17;1.75;76.65
70830;SHT30;58451;51.550;7.208;2024-01-16T09:27:49;1.76;76.35
70830;SHT30;58451;51.550;7.208;2024-01-16T09:29:21;1.77;76.60
70830;SHT30;58451;51.550;7.208;2024-01-16T09:30:53;1.80;76.33
70830;SHT30;58451;51.550;7.208;2024-01-16T09:32:26;1.84;76.52
70830;SHT30;58451;51.550;7.208;2024-01-16T09:33:58;1.85;75.67
70830;SHT30;58451;51.550;7.208;2024-01-16T09:35:29;1.88;75.72
70830;SHT30;58451;51.550;7.208;2024-01-16T09:37:01;1.92;75.48
70830;SHT30;58451;51.550;7.208;2024-01-16T09:38:33;1.95;75.02
70830;SHT30;58451;51.550;7.208;2024-01-16T09:40:05;1.98;75.47
70830;SHT30;58451;51.550;7.208;2024-01-16T09:41:37;2.01;76.15
70830;SHT30;58451;51.550;7.208;2024-01-16T09:43:09;2.01;75.35
70830;SHT30;58451;51.550;7.208;2024-01-16T09:44:41;2.03;74.53
70830;SHT30;58451;51.550;7.208;2024-01-16T09:46:14;2.05;74.55
70830;SHT30;58451;51.550;7.208;2024-01-16T09:47:47;2.06;74.40
70830;SHT30;58451;51.550;7.208;2024-01-16T09:49:22;2.08;75.30